Time;durP1;ratioP1;P1;durP2;ratioP2;P2;SDS_P1;SDS_P2;PMS_P1;PMS_P2;Temp;Humidity;BMP_temperature;BMP_pressure;BME280_temperature;BME280_humidity;BME280_pressure;Samples;Min_cycle;Max_cycle;Signal;HPM_P1;HPM_P2
2024/01/21 00:01:29;;;;;;;194.57;8.03;;;;;;;21.01;47.55;100767.63;7296217;19;130385;-40
2024/01/21 00:03:54;;;;;;;227.38;9.27;;;;;;;21.00;47.57;100772.97;7294549;19;132496;-44
2024/01/21 00:06:20;;;;;;;209.25;8.43;;;;;;;20.91;47.97;100763.94;7294871;19;129340;-41
2024/01/21 00:08:45;;;;;;;141.05;5.60;;;;;;;20.85;48.38;100763.53;7293174;19;131525;-38
2024/01/21 00:11:10;;;;;;;195.27;8.05;;;;;;;20.88;47.99;100764.16;7293402;19;130089;-44
2024/01/21 00:13:36;;;;;;;233.90;9.65;;;;;;;20.82;48.41;100766.38;7292845;19;130336;-41
2024/01/21 00:16:01;;;;;;;218.02;8.80;;;;;;;20.75;47.97;100752.88;7291965;19;132479;-38
2024/01/21 00:18:26;;;;;;;349.70;14.98;;;;;;;20.62;48.61;100754.69;7292722;19;129319;-42
2024/01/21 00:20:52;;;;;;;204.35;7.72;;;;;;;20.58;48.61;100753.19;7294089;19;129536;-39
2024/01/21 00:23:17;;;;;;;231.88;8.90;;;;;;;20.45;49.72;100744.53;7294794;19;130411;-42
2024/01/21 00:25:43;;;;;;;235.20;9.45;;;;;;;20.37;49.33;100739.84;7293253;19;130222;-43
2024/01/21 00:28:08;;;;;;;236.73;9.57;;;;;;;20.02;49.34;100740.47;7289648;19;129937;-41
2024/01/21 00:30:33;;;;;;;188.75;7.65;;;;;;;19.82;50.35;100733.97;7287910;19;130112;-38
2024/01/21 00:32:59;;;;;;;251.75;9.88;;;;;;;19.55;50.43;100708.84;7286410;19;130331;-42
2024/01/21 00:35:24;;;;;;;267.45;10.93;;;;;;;19.63;50.30;100733.53;7291294;19;130241;-44
2024/01/21 00:37:50;;;;;;;154.65;6.22;;;;;;;19.61;50.54;100730.16;7295538;19;132280;-39
2024/01/21 00:40:15;;;;;;;235.82;9.32;;;;;;;19.57;50.31;100739.09;7290289;19;130325;-42
2024/01/21 00:42:40;;;;;;;192.52;7.68;;;;;;;19.58;50.35;100739.97;7295264;19;130366;-39
2024/01/21 00:45:07;;;;;;;232.30;9.55;;;;;;;19.59;51.21;100741.63;7294103;19;129628;-40
2024/01/21 00:47:32;;;;;;;179.90;7.22;;;;;;;19.81;50.08;100734.06;7293726;19;130265;-43
2024/01/21 00:49:58;;;;;;;233.88;9.18;;;;;;;20.14;49.76;100734.47;7292205;19;131830;-40
2024/01/21 00:52:23;;;;;;;208.98;8.48;;;;;;;20.23;49.73;100736.50;7289664;19;130216;-38
2024/01/21 00:54:48;;;;;;;161.43;6.53;;;;;;;20.32;49.01;100738.47;7294735;19;130028;-37
2024/01/21 00:57:14;;;;;;;107.18;4.70;;;;;;;20.25;49.45;100745.03;7292030;19;129144;-43
2024/01/21 00:59:39;;;;;;;242.95;9.55;;;;;;;20.29;49.13;100739.53;7291151;19;130172;-43
2024/01/21 01:02:08;;;;;;;167.77;7.22;;;;;;;20.30;49.85;100740.34;7291508;19;129573;-41
2024/01/21 01:04:34;;;;;;;165.48;6.80;;;;;;;20.33;49.22;100745.34;7293369;19;130205;-42
2024/01/21 01:06:59;;;;;;;175.82;7.13;;;;;;;20.28;49.41;100748.28;7292990;19;130933;-38
2024/01/21 01:09:24;;;;;;;280.80;11.38;;;;;;;20.19;49.65;100743.69;7291747;19;131380;-38
2024/01/21 01:11:50;;;;;;;192.07;7.90;;;;;;;20.18;50.20;100746.41;7295172;19;130720;-42
2024/01/21 01:14:15;;;;;;;208.20;8.55;;;;;;;20.13;50.15;100740.63;7290386;19;130395;-45
2024/01/21 01:16:41;;;;;;;177.65;7.38;;;;;;;20.05;49.95;100735.06;7291526;19;129380;-45
2024/01/21 01:19:07;;;;;;;246.60;9.60;;;;;;;20.05;50.20;100742.88;7290178;19;130919;-39
2024/01/21 01:21:32;;;;;;;154.20;6.30;;;;;;;20.01;50.78;100744.03;7292336;19;130402;-41
2024/01/21 01:23:58;;;;;;;177.85;7.22;;;;;;;19.72;51.04;100737.31;7290409;19;131083;-38
2024/01/21 01:26:23;;;;;;;217.48;8.80;;;;;;;19.55;51.71;100730.56;7291520;19;130132;-44
2024/01/21 01:28:50;;;;;;;142.80;5.97;;;;;;;19.51;51.22;100743.88;7293335;19;130152;-42
2024/01/21 01:31:19;;;;;;;216.70;9.15;;;;;;;19.45;51.33;100734.69;7292691;19;130429;-39
2024/01/21 01:33:44;;;;;;;111.43;4.85;;;;;;;19.43;51.55;100729.59;7293287;19;129638;-37
2024/01/21 01:36:10;;;;;;;235.27;9.65;;;;;;;19.47;50.70;100732.00;7290563;19;129573;-38
2024/01/21 01:38:36;;;;;;;137.13;5.60;;;;;;;19.42;50.94;100720.06;7293889;19;131691;-43
2024/01/21 01:41:01;;;;;;;171.60;6.88;;;;;;;19.45;51.49;100730.31;7291579;19;130474;-43
2024/01/21 01:43:26;;;;;;;129.15;5.60;;;;;;;19.43;51.26;100736.56;7292577;19;130440;-39
2024/01/21 01:45:52;;;;;;;301.92;12.68;;;;;;;19.65;51.16;100736.03;7292307;19;129817;-38
2024/01/21 01:48:19;;;;;;;209.40;8.77;;;;;;;19.58;50.87;100719.09;7293404;19;129825;-39
2024/01/21 01:50:45;;;;;;;180.02;7.55;;;;;;;19.73;51.04;100723.31;7291674;19;131386;-39
2024/01/21 01:53:10;;;;;;;231.07;9.57;;;;;;;19.78;50.64;100719.47;7291700;19;129153;-39
2024/01/21 01:55:36;;;;;;;251.52;9.90;;;;;;;19.83;51.00;100721.78;7290465;19;131104;-39
2024/01/21 01:58:02;;;;;;;162.38;7.03;;;;;;;19.84;50.78;100719.06;7292909;19;130720;-44
2024/01/21 02:00:28;;;;;;;158.65;6.45;;;;;;;19.85;50.50;100722.50;7289917;19;130365;-41
2024/01/21 02:02:53;;;;;;;164.82;6.80;;;;;;;19.81;51.12;100715.81;7291322;19;129096;-41
2024/01/21 02:05:19;;;;;;;276.08;11.23;;;;;;;19.81;51.11;100710.59;7299118;19;130650;-39
2024/01/21 02:07:44;;;;;;;158.40;6.57;;;;;;;19.81;50.70;100710.59;7300801;19;132206;-45
2024/01/21 02:10:10;;;;;;;153.88;6.85;;;;;;;19.73;50.67;100697.22;7295425;19;130149;-42
2024/01/21 02:12:40;;;;;;;259.00;10.23;;;;;;;19.79;51.04;100699.41;7297055;19;129651;-39
2024/01/21 02:15:06;;;;;;;232.93;9.45;;;;;;;19.73;51.48;100686.78;7295561;19;131220;-44
2024/01/21 02:17:31;;;;;;;180.02;7.55;;;;;;;19.77;51.17;100693.47;7299646;19;130277;-39
2024/01/21 02:19:56;;;;;;;125.95;5.38;;;;;;;19.66;50.75;100694.19;7294514;19;130736;-43
2024/01/21 02:22:24;;;;;;;195.00;8.00;;;;;;;19.48;51.61;100693.59;7297181;19;129217;-43
2024/01/21 02:24:49;;;;;;;201.30;8.30;;;;;;;19.36;51.72;100689.19;7297530;19;129194;-40
2024/01/21 02:27:14;;;;;;;184.55;8.10;;;;;;;19.36;51.28;100699.63;7298702;19;130556;-37
2024/01/21 02:29:40;;;;;;;176.95;7.50;;;;;;;19.33;51.93;100705.03;7296709;19;131119;-42
2024/01/21 02:32:05;;;;;;;209.50;8.40;;;;;;;19.37;51.70;100705.66;7298608;19;130195;-40
2024/01/21 02:34:31;;;;;;;228.80;9.13;;;;;;;19.40;50.86;100708.91;7298834;19;129972;-37
2024/01/21 02:36:56;;;;;;;138.75;5.82;;;;;;;19.38;51.01;100708.19;7297988;19;131018;-40
2024/01/21 02:39:22;;;;;;;188.50;7.85;;;;;;;19.39;51.12;100709.84;7297228;19;130592;-45
2024/01/21 02:41:47;;;;;;;115.50;5.13;;;;;;;19.37;51.71;100710.84;7297876;19;129314;-43
2024/01/21 02:44:13;;;;;;;237.50;9.57;;;;;;;19.54;50.90;100708.00;7298038;19;129081;-44
2024/01/21 02:46:38;;;;;;;180.73;7.40;;;;;;;19.44;50.46;100678.25;7297096;19;130687;-40
2024/01/21 02:49:04;;;;;;;197.65;8.15;;;;;;;19.55;50.58;100682.78;7296829;19;130457;-39
2024/01/21 02:51:30;;;;;;;237.98;9.32;;;;;;;19.78;50.45;100705.59;7297291;19;129702;-43
2024/01/21 02:53:56;;;;;;;207.98;8.43;;;;;;;19.77;51.15;100704.75;7298648;19;130679;-40
2024/01/21 02:56:25;;;;;;;214.02;8.93;;;;;;;19.75;50.38;100690.94;7296280;19;131590;-39
2024/01/21 02:58:52;;;;;;;115.10;4.97;;;;;;;19.86;50.33;100696.31;7296801;19;131692;-40
2024/01/21 03:01:18;;;;;;;261.93;10.73;;;;;;;19.87;51.01;100689.31;7297229;19;130601;-39
2024/01/21 03:03:44;;;;;;;157.13;6.38;;;;;;;19.84;50.65;100684.28;7299560;19;133221;-42
2024/01/21 03:06:09;;;;;;;165.38;7.07;;;;;;;19.83;50.50;100675.66;7296605;19;131104;-41
2024/01/21 03:08:35;;;;;;;200.25;8.07;;;;;;;19.91;50.41;100669.91;7292083;19;129210;-37
2024/01/21 03:11:00;;;;;;;208.15;8.38;;;;;;;19.92;50.94;100663.72;7297708;19;131286;-38
2024/01/21 03:13:26;;;;;;;207.00;8.35;;;;;;;19.82;50.92;100660.06;7297594;19;130022;-38
2024/01/21 03:15:51;;;;;;;134.13;6.38;;;;;;;19.90;50.68;100665.63;7293905;19;130182;-41
2024/01/21 03:18:17;;;;;;;350.33;14.30;;;;;;;19.88;50.69;100660.53;7295027;19;130628;-43
2024/01/21 03:20:42;;;;;;;216.55;8.65;;;;;;;19.69;50.91;100664.44;7294257;19;131204;-39
2024/01/21 03:23:08;;;;;;;153.63;6.50;;;;;;;19.50;51.41;100662.22;7297995;19;129357;-42
2024/01/21 03:25:33;;;;;;;170.43;7.13;;;;;;;19.23;51.54;100630.06;7294647;19;130740;-40
2024/01/21 03:27:58;;;;;;;205.60;8.50;;;;;;;19.38;51.18;100658.63;7296017;19;130325;-39
2024/01/21 03:30:24;;;;;;;237.40;9.63;;;;;;;19.39;51.42;100655.09;7290523;19;130778;-41
2024/01/21 03:32:49;;;;;;;212.45;8.90;;;;;;;19.30;51.66;100653.06;7293493;19;129936;-37
2024/01/21 03:35:14;;;;;;;207.88;8.25;;;;;;;19.34;51.48;100659.75;7292077;19;129648;-44
2024/01/21 03:37:40;;;;;;;210.13;8.27;;;;;;;19.37;50.89;100659.56;7294483;19;130163;-43
2024/01/21 03:40:06;;;;;;;194.38;8.00;;;;;;;19.34;51.26;100659.75;7295545;19;131206;-42
2024/01/21 03:42:31;;;;;;;253.77;10.43;;;;;;;19.59;50.56;100652.94;7294690;19;130604;-38
2024/01/21 03:44:57;;;;;;;180.32;7.70;;;;;;;19.73;51.08;100645.03;7296224;19;131531;-38
2024/01/21 03:47:22;;;;;;;235.38;9.52;;;;;;;19.78;50.49;100640.34;7296123;19;131614;-39
2024/01/21 03:49:48;;;;;;;116.57;5.07;;;;;;;19.94;50.01;100638.38;7295985;19;132111;-43
2024/01/21 03:52:13;;;;;;;98.10;4.43;;;;;;;19.95;50.05;100640.06;7294557;19;129014;-40
2024/01/21 03:54:39;;;;;;;176.90;7.38;;;;;;;19.90;50.33;100636.94;7295609;19;130386;-38
2024/01/21 03:57:04;;;;;;;232.32;9.30;;;;;;;19.91;49.93;100639.44;7296261;19;131015;-38
2024/01/21 03:59:29;;;;;;;190.25;7.80;;;;;;;19.81;50.82;100606.22;7295366;19;129612;-41
2024/01/21 04:01:54;;;;;;;131.43;5.95;;;;;;;19.98;49.91;100624.19;7295620;19;129791;-43
2024/01/21 04:04:20;;;;;;;138.13;5.78;;;;;;;19.95;50.12;100630.44;7287443;19;131601;-39
2024/01/21 04:06:46;;;;;;;272.48;10.80;;;;;;;19.99;50.13;100625.84;7295540;19;133173;-39
2024/01/21 04:09:12;;;;;;;221.43;9.27;;;;;;;20.07;49.95;100627.00;7289128;19;130754;-39
2024/01/21 04:11:41;;;;;;;254.02;10.30;;;;;;;20.02;50.33;100628.25;7287520;19;129895;-42
2024/01/21 04:14:06;;;;;;;288.05;11.65;;;;;;;20.03;50.39;100630.75;7289105;19;130405;-43
2024/01/21 04:16:32;;;;;;;116.85;5.22;;;;;;;19.96;50.65;100631.28;7288731;19;130531;-42
2024/01/21 04:18:57;;;;;;;155.73;6.55;;;;;;;19.65;51.30;100642.13;7288473;19;129583;-38
2024/01/21 04:21:23;;;;;;;246.73;10.18;;;;;;;19.44;51.17;100626.94;7293944;19;129346;-38
2024/01/21 04:23:48;;;;;;;209.20;8.63;;;;;;;19.42;51.82;100641.00;7293906;19;130852;-37
2024/01/21 04:26:13;;;;;;;188.38;7.60;;;;;;;19.44;50.85;100641.75;7292981;19;132538;-41
2024/01/21 04:28:39;;;;;;;171.30;7.45;;;;;;;19.39;51.35;100631.63;7293079;19;130517;-41
2024/01/21 04:31:05;;;;;;;169.32;7.20;;;;;;;19.22;51.44;100608.38;7294251;19;130711;-40
2024/01/21 04:33:31;;;;;;;;;;;;;;;19.38;51.53;100634.31;7294065;19;129982;-40
2024/01/21 04:35:56;;;;;;;231.38;9.50;;;;;;;19.34;50.65;100633.69;7292369;19;132956;-43
2024/01/21 04:38:23;;;;;;;188.43;7.95;;;;;;;19.52;51.17;100636.03;7295055;19;130214;-42
2024/01/21 04:40:49;;;;;;;171.45;7.20;;;;;;;19.50;50.56;100606.59;7296046;19;131241;-38
2024/01/21 04:43:14;;;;;;;204.27;8.32;;;;;;;19.79;50.19;100618.53;7293843;19;131615;-44
2024/01/21 04:45:39;;;;;;;159.63;6.55;;;;;;;19.83;50.69;100622.63;7292417;19;130598;-44
2024/01/21 04:48:05;;;;;;;187.50;7.78;;;;;;;20.00;49.99;100622.31;7294108;19;129146;-41
2024/01/21 04:50:30;;;;;;;233.85;10.02;;;;;;;19.99;49.95;100625.84;7292949;19;131246;-38
2024/01/21 04:52:56;;;;;;;224.43;9.30;;;;;;;20.00;49.85;100624.94;7294497;19;130113;-43
2024/01/21 04:55:21;;;;;;;155.13;6.65;;;;;;;20.10;49.74;100620.72;7292474;19;134639;-44
2024/01/21 04:57:46;;;;;;;171.45;7.28;;;;;;;20.14;49.81;100619.59;7293216;19;129407;-41
2024/01/21 05:00:12;;;;;;;153.95;6.53;;;;;;;20.16;49.53;100612.53;7292767;19;129554;-41
2024/01/21 05:02:38;;;;;;;239.73;10.13;;;;;;;20.22;49.73;100612.09;7292393;19;130023;-41
2024/01/21 05:05:03;;;;;;;173.55;7.45;;;;;;;20.30;49.70;100615.84;7293343;19;131127;-40
2024/01/21 05:07:29;;;;;;;178.93;7.57;;;;;;;20.35;49.17;100612.91;7291538;19;131209;-39
2024/01/21 05:09:54;;;;;;;191.10;8.10;;;;;;;20.24;49.59;100610.22;7291087;19;129956;-43
2024/01/21 05:12:19;;;;;;;123.32;5.53;;;;;;;20.25;50.16;100611.88;7293037;19;130487;-38
2024/01/21 05:14:45;;;;;;;178.75;7.47;;;;;;;19.95;50.29;100614.78;7293952;19;129696;-37
2024/01/21 05:17:10;;;;;;;212.55;8.90;;;;;;;19.75;50.12;100606.66;7291758;19;129777;-38
2024/01/21 05:19:35;;;;;;;184.68;7.78;;;;;;;19.62;50.57;100611.00;7290634;19;129495;-41
2024/01/21 05:22:01;;;;;;;171.95;7.45;;;;;;;19.54;50.42;100613.28;7293615;19;129571;-42
2024/01/21 05:24:26;;;;;;;208.73;8.77;;;;;;;19.51;50.59;100618.69;7293127;19;129888;-38
2024/01/21 05:26:51;;;;;;;178.07;7.50;;;;;;;19.48;51.14;100617.94;7291378;19;129396;-39
2024/01/21 05:29:18;;;;;;;160.13;6.63;;;;;;;19.45;50.46;100615.56;7291849;19;131047;-41
2024/01/21 05:31:45;;;;;;;132.50;5.55;;;;;;;19.31;50.61;100591.34;7292827;19;131091;-42
2024/01/21 05:34:10;;;;;;;166.95;6.95;;;;;;;19.55;50.39;100599.31;7293145;19;130968;-37
2024/01/21 05:36:35;;;;;;;188.20;7.65;;;;;;;19.77;50.62;100599.53;7290874;19;131163;-40
2024/01/21 05:39:01;;;;;;;244.38;10.07;;;;;;;19.79;50.62;100595.88;7291567;19;130713;-45
2024/01/21 05:41:28;;;;;;;169.07;7.47;;;;;;;19.87;50.40;100598.81;7293211;19;131539;-44
2024/01/21 05:43:54;;;;;;;165.95;6.93;;;;;;;19.88;50.66;100599.66;7293210;19;130583;-37
2024/01/21 05:46:19;;;;;;;169.85;7.43;;;;;;;19.80;50.62;100601.94;7292952;19;131673;-37
2024/01/21 05:48:44;;;;;;;231.85;9.90;;;;;;;19.73;50.57;100590.25;7291713;19;130094;-43
2024/01/21 05:51:10;;;;;;;114.88;5.13;;;;;;;19.76;51.14;100590.88;7291110;19;130167;-42
2024/01/21 05:53:35;;;;;;;233.80;10.10;;;;;;;19.69;50.70;100607.03;7291811;19;129603;-38
2024/01/21 05:56:00;;;;;;;201.30;8.35;;;;;;;19.68;50.58;100608.84;7289487;19;129289;-39
2024/01/21 05:58:26;;;;;;;270.23;11.30;;;;;;;19.66;51.04;100617.69;7291409;19;129110;-38
2024/01/21 06:00:51;;;;;;;154.40;6.55;;;;;;;19.62;51.62;100613.63;7291429;19;130636;-37
2024/01/21 06:03:16;;;;;;;180.82;7.63;;;;;;;19.54;51.18;100608.91;7293258;19;133445;-38
2024/01/21 06:05:42;;;;;;;198.65;8.27;;;;;;;19.55;51.81;100607.13;7292833;19;131724;-37
2024/01/21 06:08:07;;;;;;;209.00;8.55;;;;;;;19.50;52.22;100604.84;7292320;19;129450;-39
2024/01/21 06:10:32;;;;;;;224.90;9.52;;;;;;;19.50;52.04;100609.22;7286910;19;130001;-39
2024/01/21 06:12:58;;;;;;;123.25;5.47;;;;;;;19.35;51.44;100604.06;7291558;19;130005;-37
2024/01/21 06:15:23;;;;;;;189.93;8.02;;;;;;;19.34;51.46;100601.56;7290128;19;129394;-37
2024/01/21 06:17:51;;;;;;;193.40;8.30;;;;;;;19.39;52.12;100592.50;7291926;19;129443;-38
2024/01/21 06:20:17;;;;;;;161.60;6.75;;;;;;;19.43;51.95;100591.38;7285630;19;129529;-38
2024/01/21 06:22:42;;;;;;;193.43;8.23;;;;;;;19.43;51.14;100591.38;7292425;19;133945;-38
2024/01/21 06:25:08;;;;;;;219.90;9.10;;;;;;;19.48;51.41;100593.66;7291293;19;130125;-39
2024/01/21 06:27:33;;;;;;;120.13;5.45;;;;;;;19.51;51.41;100595.22;7292557;19;130066;-39
2024/01/21 06:30:10;;;;;;;178.93;7.57;;;;;;;19.51;51.47;100587.41;7287907;19;129844;-37
2024/01/21 06:32:35;;;;;;;138.35;5.90;;;;;;;19.49;51.00;100584.91;7283087;19;130535;-38
2024/01/21 06:35:01;;;;;;;218.95;9.00;;;;;;;19.40;51.12;100562.88;7284924;19;130468;-37
2024/01/21 06:37:26;;;;;;;240.82;10.05;;;;;;;19.50;50.78;100572.69;7291336;19;131275;-37
2024/01/21 06:39:51;;;;;;;221.20;9.50;;;;;;;19.49;51.40;100577.06;7286811;19;131434;-38
2024/01/21 06:42:17;;;;;;;162.43;6.88;;;;;;;19.41;51.84;100577.59;7291589;19;133491;-37
2024/01/21 06:44:42;;;;;;;260.85;10.55;;;;;;;19.31;51.33;100555.69;7288651;19;130069;-37
2024/01/21 06:47:07;;;;;;;121.53;5.68;;;;;;;19.38;51.84;100572.59;7283684;19;129614;-38
2024/01/21 06:49:33;;;;;;;248.20;10.48;;;;;;;19.26;51.71;100552.50;7282944;19;131007;-37
2024/01/21 06:51:58;;;;;;;247.43;10.27;;;;;;;19.35;51.65;100575.38;7290903;19;130511;-39
2024/01/21 06:54:24;;;;;;;167.15;7.05;;;;;;;19.34;52.25;100565.91;7289745;19;131997;-37
2024/01/21 06:56:49;;;;;;;235.23;9.70;;;;;;;19.35;51.62;100567.56;7290563;19;131200;-38
2024/01/21 06:59:14;;;;;;;167.32;7.22;;;;;;;19.38;52.21;100562.16;7292888;19;130266;-38
2024/01/21 07:01:40;;;;;;;202.20;8.40;;;;;;;19.39;52.05;100558.59;7297050;19;130137;-38
2024/01/21 07:04:05;;;;;;;238.65;9.90;;;;;;;19.40;52.02;100565.47;7292204;19;129423;-38
2024/01/21 07:06:30;;;;;;;264.73;10.77;;;;;;;19.42;51.90;100562.75;7296188;19;129305;-38
2024/01/21 07:08:56;;;;;;;329.55;13.75;;;;;;;19.50;51.38;100555.28;7292401;19;131611;-38
2024/01/21 07:11:21;;;;;;;170.43;7.20;;;;;;;19.51;51.94;100553.50;7292581;19;130866;-38
2024/01/21 07:13:47;;;;;;;164.90;7.03;;;;;;;19.65;51.64;100548.19;7288460;19;129610;-38
2024/01/21 07:16:12;;;;;;;307.42;12.85;;;;;;;19.53;51.05;100547.25;7284046;19;129932;-38
2024/01/21 07:18:37;;;;;;;207.00;8.93;;;;;;;19.42;51.30;100550.56;7293043;19;130090;-38
2024/01/21 07:21:03;;;;;;;143.13;6.13;;;;;;;19.39;50.87;100542.97;7290377;19;131014;-38
2024/01/21 07:23:28;;;;;;;177.63;7.88;;;;;;;19.37;51.29;100547.44;7294401;19;129983;-38
2024/01/21 07:25:55;;;;;;;217.75;9.10;;;;;;;19.45;50.95;100555.56;7289540;19;130522;-38
2024/01/21 07:28:23;;;;;;;220.57;9.13;;;;;;;19.36;51.00;100543.16;7290379;19;130478;-38
2024/01/21 07:30:49;;;;;;;217.25;8.73;;;;;;;19.52;50.14;100558.59;7295183;19;130365;-38
2024/01/21 07:33:14;;;;;;;342.10;14.05;;;;;;;19.63;50.30;100563.13;7291899;19;130034;-38
2024/01/21 07:35:40;;;;;;;288.02;12.15;;;;;;;19.90;49.60;100543.78;7285810;19;131700;-38
2024/01/21 07:38:05;;;;;;;316.88;13.18;;;;;;;20.42;48.79;100551.47;7286150;19;129910;-38
2024/01/21 07:40:31;;;;;;;258.92;10.85;;;;;;;20.78;47.60;100554.06;7283707;19;132086;-38
2024/01/21 07:42:57;;;;;;;384.13;15.65;;;;;;;20.79;47.47;100557.50;7287459;19;131260;-42
2024/01/21 07:45:22;;;;;;;324.98;13.85;;;;;;;20.90;47.80;100545.31;7277207;19;130636;-37
2024/01/21 07:47:48;;;;;;;247.23;9.90;;;;;;;20.98;47.54;100544.78;7284888;19;130596;-38
2024/01/21 07:50:13;;;;;;;256.90;10.63;;;;;;;20.84;47.13;100521.41;7281654;19;132373;-38
2024/01/21 07:52:38;;;;;;;320.90;13.57;;;;;;;20.90;47.73;100536.63;7286910;19;132190;-39
2024/01/21 07:55:04;;;;;;;273.58;12.07;;;;;;;20.97;47.53;100538.75;7267981;19;131736;-38
2024/01/21 07:57:29;;;;;;;268.52;11.52;;;;;;;20.90;47.81;100542.72;7276605;19;131004;-37
2024/01/21 07:59:55;;;;;;;292.27;12.43;;;;;;;20.87;48.26;100547.31;7271557;19;130488;-37
2024/01/21 08:02:20;;;;;;;287.25;12.30;;;;;;;20.92;47.92;100540.81;7274891;19;131669;-38
2024/01/21 08:04:46;;;;;;;242.77;10.48;;;;;;;20.79;48.26;100536.59;7286236;19;132864;-38
2024/01/21 08:07:12;;;;;;;253.80;10.18;;;;;;;20.79;48.37;100536.59;7293102;19;131199;-38
2024/01/21 08:09:37;;;;;;;258.98;11.25;;;;;;;20.53;48.65;100528.03;7283971;19;130404;-37
2024/01/21 08:12:03;;;;;;;262.48;10.57;;;;;;;20.16;48.79;100519.34;7289275;19;129129;-38
2024/01/21 08:14:30;;;;;;;270.45;11.23;;;;;;;19.82;49.42;100503.50;7282217;19;131400;-38
2024/01/21 08:16:55;;;;;;;267.77;11.43;;;;;;;19.83;50.13;100526.06;7274757;19;131523;-38
2024/01/21 08:19:21;;;;;;;263.48;11.20;;;;;;;19.70;50.16;100520.03;7274284;19;131696;-38
2024/01/21 08:21:47;;;;;;;249.77;10.63;;;;;;;19.66;50.54;100518.56;7286269;19;131239;-38
2024/01/21 08:24:12;;;;;;;212.87;8.57;;;;;;;19.63;50.57;100519.63;7284506;19;131361;-39
2024/01/21 08:26:38;;;;;;;245.13;10.20;;;;;;;19.59;50.43;100527.72;7290103;19;129156;-38
2024/01/21 08:29:04;;;;;;;310.30;12.63;;;;;;;19.57;50.68;100540.06;7281318;19;131697;-39
2024/01/21 08:31:29;;;;;;;147.25;6.18;;;;;;;19.78;50.30;100522.94;7289751;19;130372;-38
2024/01/21 08:33:55;;;;;;;326.10;13.82;;;;;;;19.91;50.08;100515.94;7290059;19;129232;-38
2024/01/21 08:36:20;;;;;;;323.33;13.48;;;;;;;19.89;50.54;100513.44;7285400;19;130368;-38
2024/01/21 08:38:45;;;;;;;361.60;15.07;;;;;;;19.84;50.37;100512.91;7286973;19;131239;-38
2024/01/21 08:41:11;;;;;;;192.65;7.82;;;;;;;19.80;50.19;100516.66;7291017;19;130128;-38
2024/01/21 08:43:36;;;;;;;183.80;7.75;;;;;;;19.75;50.75;100510.13;7293433;19;129201;-39
2024/01/21 08:46:02;;;;;;;256.55;11.00;;;;;;;19.77;50.63;100500.38;7288013;19;132231;-39
2024/01/21 08:48:27;;;;;;;231.57;9.43;;;;;;;19.71;50.53;100496.44;7286923;19;131142;-38
2024/01/21 08:50:53;;;;;;;239.63;10.18;;;;;;;19.63;51.50;100490.06;7284026;19;131088;-35
2024/01/21 08:53:20;;;;;;;252.15;10.40;;;;;;;19.63;51.35;100492.69;7280722;19;130110;-38
2024/01/21 08:55:46;;;;;;;262.50;11.93;;;;;;;19.57;51.80;100493.13;7275565;19;135030;-37
2024/01/21 08:58:11;;;;;;;229.23;9.65;;;;;;;19.59;51.52;100486.00;7275266;19;130278;-36
2024/01/21 09:00:37;;;;;;;326.75;13.63;;;;;;;19.51;51.96;100493.50;7271512;19;130364;-35
2024/01/21 09:03:02;;;;;;;199.35;8.27;;;;;;;19.53;51.84;100483.81;7283545;19;131932;-39
2024/01/21 09:05:28;;;;;;;236.52;10.18;;;;;;;19.54;51.99;100483.72;7292066;19;130796;-38
2024/01/21 09:07:53;;;;;;;157.32;6.85;;;;;;;19.48;52.22;100474.53;7292143;19;130716;-38
2024/01/21 09:10:20;;;;;;;212.52;8.82;;;;;;;19.37;51.75;100466.59;7288549;19;131251;-35
2024/01/21 09:12:46;;;;;;;218.93;9.38;;;;;;;19.36;51.43;100477.13;7290701;19;129760;-38
2024/01/21 09:15:11;;;;;;;280.58;11.88;;;;;;;19.34;51.88;100472.03;7285721;19;130153;-38
2024/01/21 09:17:37;;;;;;;197.93;8.35;;;;;;;19.33;51.60;100483.41;7281418;19;130373;-38
2024/01/21 09:20:03;;;;;;;260.75;10.68;;;;;;;19.34;51.95;100481.63;7283626;19;131403;-39
2024/01/21 09:22:28;;;;;;;227.73;9.47;;;;;;;19.34;51.50;100481.63;7282940;19;129795;-38
2024/01/21 09:24:54;;;;;;;272.98;11.35;;;;;;;19.31;51.39;100481.81;7284869;19;131424;-37
2024/01/21 09:27:19;;;;;;;313.67;12.88;;;;;;;19.32;51.51;100480.91;7277403;19;131912;-37
2024/01/21 09:29:45;;;;;;;317.40;12.80;;;;;;;19.32;51.19;100494.75;7277550;19;130253;-35
2024/01/21 09:32:13;;;;;;;312.23;12.73;;;;;;;19.43;51.26;100487.06;7274212;19;130595;-38
2024/01/21 09:34:39;;;;;;;216.77;8.93;;;;;;;19.69;50.70;100490.50;7281115;19;131641;-37
2024/01/21 09:37:06;;;;;;;257.20;10.40;;;;;;;19.83;50.27;100481.72;7280371;19;130673;-37
2024/01/21 09:39:31;;;;;;;260.98;10.68;;;;;;;19.91;49.96;100482.00;7280867;19;132592;-38
2024/01/21 09:41:57;;;;;;;237.27;9.95;;;;;;;19.88;50.66;100477.00;7282478;19;131888;-39
2024/01/21 09:44:28;;;;;;;285.05;11.93;;;;;;;19.92;50.52;100470.63;7280415;19;131323;-36
2024/01/21 09:46:58;;;;;;;282.35;11.85;;;;;;;19.98;50.11;100472.81;7285386;19;131088;-38
2024/01/21 09:49:24;;;;;;;169.45;7.07;;;;;;;20.08;49.76;100479.06;7283183;19;131271;-37
2024/01/21 09:51:51;;;;;;;209.18;8.48;;;;;;;20.08;49.51;100473.84;7287873;19;129318;-39
2024/01/21 09:54:17;;;;;;;;;;;;;;;19.98;50.35;100457.16;7288007;19;130342;-36
2024/01/21 09:56:43;;;;;;;239.70;10.32;;;;;;;20.00;49.30;100465.72;7275723;19;131835;-38
2024/01/21 09:59:10;;;;;;;250.27;10.07;;;;;;;19.87;49.32;100444.84;7290738;19;129321;-39
2024/01/21 10:01:42;;;;;;;173.50;7.50;;;;;;;20.05;49.45;100468.81;7290741;19;130578;-42
2024/01/21 10:04:11;;;;;;;189.77;8.02;;;;;;;20.02;49.64;100469.03;7283419;19;131262;-38
2024/01/21 10:06:37;;;;;;;292.90;11.90;;;;;;;20.14;49.56;100468.16;7285752;19;130399;-43
2024/01/21 10:09:16;;;;;;;105.47;5.10;;;;;;;20.07;49.25;100461.72;7289693;19;129434;-39
2024/01/21 10:11:41;;;;;;;314.92;14.65;;;;;;;19.82;49.96;100446.09;7288371;19;129269;-43
2024/01/21 10:14:07;;;;;;;237.35;11.77;;;;;;;19.72;49.87;100445.09;7278272;19;130703;-44
2024/01/21 10:16:33;;;;;;;252.90;11.90;;;;;;;19.60;50.54;100445.94;7276883;19;130959;-42
2024/01/21 10:18:58;;;;;;;276.50;13.45;;;;;;;19.53;50.66;100445.53;7283355;19;132478;-40
2024/01/21 10:21:24;;;;;;;355.40;17.35;;;;;;;19.53;50.92;100447.31;7281320;19;129754;-42
2024/01/21 10:23:49;;;;;;;251.05;12.23;;;;;;;19.38;50.28;100418.75;7280987;19;130334;-41
2024/01/21 10:26:15;;;;;;;380.38;17.45;;;;;;;19.47;50.56;100429.47;7289089;19;131716;-39
2024/01/21 10:28:41;;;;;;;192.02;9.80;;;;;;;19.56;50.60;100428.84;7297002;19;130168;-37
2024/01/21 10:31:07;;;;;;;220.97;11.10;;;;;;;19.56;50.42;100432.28;7291817;19;130343;-40
2024/01/21 10:33:32;;;;;;;276.48;13.18;;;;;;;19.87;49.98;100433.56;7284574;19;130744;-41
2024/01/21 10:36:01;;;;;;;329.50;15.70;;;;;;;20.10;49.27;100438.00;7286433;19;130937;-39
2024/01/21 10:38:32;;;;;;;242.32;11.57;;;;;;;20.25;48.97;100429.09;7285219;19;129574;-42
2024/01/21 10:41:00;;;;;;;200.55;9.82;;;;;;;20.18;49.49;100417.44;7294917;19;129423;-42
2024/01/21 10:43:27;;;;;;;299.08;13.88;;;;;;;20.30;49.38;100408.72;7295422;19;130307;-40
2024/01/21 10:45:54;;;;;;;252.90;13.02;;;;;;;20.27;49.34;100401.94;7293588;19;130261;-38
2024/01/21 10:48:20;;;;;;;192.95;9.77;;;;;;;20.25;49.49;100392.53;7291314;19;130757;-40
2024/01/21 10:50:50;;;;;;;228.15;11.57;;;;;;;20.33;49.55;100384.97;7290187;19;130468;-43
2024/01/21 10:53:17;;;;;;;225.57;10.80;;;;;;;20.29;49.31;100383.56;7292903;19;131113;-38